Terminal Aerodrome Forecast
Issued by NWS

Home | Current Version | Previous Version | Text Only | Print | Product List | Glossary On
Versions: 1 2 3 4 5 6 7 8 9 10 11 12 13 14 15 16 17 18 19 20 21 22 23 24 25 26 27 28 29 30
000
FTUS41 KOKX 172300 RRA
TAFTEB
TAF
KTEB 172341Z 1800/1824 20004KT P6SM FEW050
     FM180100 VRB03KT P6SM FEW070 FEW250
     FM180700 26005KT P6SM FEW070 SCT250
     FM181200 34006KT P6SM FEW050 SCT250
     FM181800 30007KT P6SM FEW050 SCT250=

USA.gov is the U.S. government's official web portal to all federal, state and local government web resources and services.